Portada
METAR-TAF:

METAR-TAF

Aeroports :

Utsunomiya, Japó

latitud: 36-31N, longitud: 139-52E, altitud: 102 m

Observació

L'informe es va fer fa 8 hores i 51 minuts, a les 00:03 UTC
Vent 2 kt amb direcció variable
Temperatura 10°C
Humitat 100%
Pressió 1013 hPa
Visibilitat: 6000 m
Escasses núvols a una alçada de 300 ft

METAR: RJTU 120003Z VRB02KT 6000 FEW003 10/10 Q1013 RMK 2ST003 A2991 4000E-S

Hora: 17:54 (08:54 UTC)


TAF: manca

Observacions i pronòstics meteorològics de més de 4000 aeroports (METAR i TAF).

Les estacions disponibles són els punts grocs i vermells al mapa.

Posi el ratolí al punt desitjat per veure el nom de l'estació.

Feu clic per veure les observacions i els pronòstics meteorològics.

Per canviar el mapa: feu clic els botons verds amb una creu de color negre per apropar; al botó verd amb un guió per allunyar la imatge; o en les fletxes verdes per a mapes adjacents.


METAR-TAF: